sensor_id;sensor_type;location;lat;lon;timestamp;pressure;altitude;pressure_sealevel;temperature;humidity
65754;BME280;52488;47.502;18.940;2023-02-16T00:00:01;99355.75;;;0.18;98.53
65754;BME280;52488;47.502;18.940;2023-02-16T00:01:27;99354.28;;;0.17;98.44
65754;BME280;52488;47.502;18.940;2023-02-16T00:02:31;99354.47;;;0.14;98.42
65754;BME280;52488;47.502;18.940;2023-02-16T00:03:34;99353.00;;;0.13;98.47
65754;BME280;52488;47.502;18.940;2023-02-16T00:04:37;99353.50;;;0.11;98.42
65754;BME280;52488;47.502;18.940;2023-02-16T00:05:41;99354.44;;;0.08;98.44
65754;BME280;52488;47.502;18.940;2023-02-16T00:06:45;99355.38;;;0.05;98.55
65754;BME280;52488;47.502;18.940;2023-02-16T00:07:48;99351.94;;;0.05;98.60
65754;BME280;52488;47.502;18.940;2023-02-16T00:08:53;99349.72;;;0.03;98.64
65754;BME280;52488;47.502;18.940;2023-02-16T00:09:56;99353.44;;;0.06;98.69
65754;BME280;52488;47.502;18.940;2023-02-16T00:10:59;99344.13;;;0.07;98.67
65754;BME280;52488;47.502;18.940;2023-02-16T00:12:21;99351.94;;;0.05;98.69
65754;BME280;52488;47.502;18.940;2023-02-16T00:13:43;99347.28;;;0.05;98.74
65754;BME280;52488;47.502;18.940;2023-02-16T00:14:46;99344.84;;;0.07;98.66
65754;BME280;52488;47.502;18.940;2023-02-16T00:15:50;99347.81;;;0.09;98.59
65754;BME280;52488;47.502;18.940;2023-02-16T00:16:57;99349.28;;;0.10;98.51
65754;BME280;52488;47.502;18.940;2023-02-16T00:18:01;99353.22;;;0.09;98.51
65754;BME280;52488;47.502;18.940;2023-02-16T00:20:27;99348.28;;;0.08;98.54
65754;BME280;52488;47.502;18.940;2023-02-16T00:21:33;99349.53;;;0.07;98.52
65754;BME280;52488;47.502;18.940;2023-02-16T00:22:36;99354.69;;;0.10;98.49
65754;BME280;52488;47.502;18.940;2023-02-16T00:23:40;99342.41;;;0.09;98.46
65754;BME280;52488;47.502;18.940;2023-02-16T00:24:43;99348.53;;;0.10;98.42
65754;BME280;52488;47.502;18.940;2023-02-16T00:25:47;99343.88;;;0.10;98.39
65754;BME280;52488;47.502;18.940;2023-02-16T00:26:50;99338.47;;;0.10;98.34
65754;BME280;52488;47.502;18.940;2023-02-16T00:27:53;99342.66;;;0.06;98.36
65754;BME280;52488;47.502;18.940;2023-02-16T00:28:56;99340.19;;;0.08;98.42
65754;BME280;52488;47.502;18.940;2023-02-16T00:30:01;99339.69;;;0.09;98.39
65754;BME280;52488;47.502;18.940;2023-02-16T00:31:05;99337.25;;;0.06;98.32
65754;BME280;52488;47.502;18.940;2023-02-16T00:32:11;99331.78;;;0.00;98.38
65754;BME280;52488;47.502;18.940;2023-02-16T00:33:17;99335.97;;;0.01;98.49
65754;BME280;52488;47.502;18.940;2023-02-16T00:34:39;99338.63;;;-0.05;98.60
65754;BME280;52488;47.502;18.940;2023-02-16T00:35:43;99337.91;;;-0.05;98.76
65754;BME280;52488;47.502;18.940;2023-02-16T00:36:46;99336.19;;;-0.03;98.83
65754;BME280;52488;47.502;18.940;2023-02-16T00:37:50;99332.00;;;-0.04;98.83
65754;BME280;52488;47.502;18.940;2023-02-16T00:38:53;99330.03;;;-0.03;98.81
65754;BME280;52488;47.502;18.940;2023-02-16T00:39:56;99330.25;;;-0.07;98.84
65754;BME280;52488;47.502;18.940;2023-02-16T00:41:00;99338.16;;;-0.03;98.93
65754;BME280;52488;47.502;18.940;2023-02-16T00:42:18;99332.75;;;-0.03;98.93
65754;BME280;52488;47.502;18.940;2023-02-16T00:43:27;99337.91;;;-0.05;98.92
65754;BME280;52488;47.502;18.940;2023-02-16T00:44:32;99336.19;;;-0.03;99.02
65754;BME280;52488;47.502;18.940;2023-02-16T00:45:36;99335.97;;;0.01;98.98
65754;BME280;52488;47.502;18.940;2023-02-16T00:46:41;99331.53;;;-0.02;98.96
65754;BME280;52488;47.502;18.940;2023-02-16T00:47:47;99329.56;;;-0.02;98.96
65754;BME280;52488;47.502;18.940;2023-02-16T00:48:51;99329.31;;;-0.04;98.92
65754;BME280;52488;47.502;18.940;2023-02-16T00:49:55;99327.09;;;-0.05;98.90
65754;BME280;52488;47.502;18.940;2023-02-16T00:50:59;99333.94;;;-0.10;98.83
65754;BME280;52488;47.502;18.940;2023-02-16T00:52:54;99332.91;;;-0.12;98.85
65754;BME280;52488;47.502;18.940;2023-02-16T00:53:32;99326.72;;;-0.18;98.86
65754;BME280;52488;47.502;18.940;2023-02-16T00:54:36;99325.97;;;-0.19;98.95
65754;BME280;52488;47.502;18.940;2023-02-16T00:55:40;99324.75;;;-0.18;98.95
65754;BME280;52488;47.502;18.940;2023-02-16T00:56:45;99325.97;;;-0.19;98.95
65754;BME280;52488;47.502;18.940;2023-02-16T00:58:54;99318.09;;;-0.22;99.05
65754;BME280;52488;47.502;18.940;2023-02-16T01:00:45;99321.06;;;-0.20;99.09
65754;BME280;52488;47.502;18.940;2023-02-16T01:01:30;99318.91;;;-0.16;99.04
65754;BME280;52488;47.502;18.940;2023-02-16T01:02:34;99320.38;;;-0.15;98.90
65754;BME280;52488;47.502;18.940;2023-02-16T01:03:38;99313.22;;;-0.18;98.96
65754;BME280;52488;47.502;18.940;2023-02-16T01:04:41;99315.66;;;-0.20;99.06
65754;BME280;52488;47.502;18.940;2023-02-16T01:05:45;99312.97;;;-0.20;99.11
65754;BME280;52488;47.502;18.940;2023-02-16T01:06:48;99308.56;;;-0.18;99.14
65754;BME280;52488;47.502;18.940;2023-02-16T01:08:11;99312.28;;;-0.15;99.06
65754;BME280;52488;47.502;18.940;2023-02-16T01:09:34;99318.62;;;-0.18;99.11
65754;BME280;52488;47.502;18.940;2023-02-16T01:10:56;99315.44;;;-0.17;99.15
65754;BME280;52488;47.502;18.940;2023-02-16T01:12:15;99310.25;;;-0.20;99.11
65754;BME280;52488;47.502;18.940;2023-02-16T01:13:19;99312.19;;;-0.27;99.14
65754;BME280;52488;47.502;18.940;2023-02-16T01:14:23;99315.78;;;-0.35;99.16
65754;BME280;52488;47.502;18.940;2023-02-16T01:15:26;99312.53;;;-0.39;99.25
65754;BME280;52488;47.502;18.940;2023-02-16T01:16:36;99307.63;;;-0.41;99.38
65754;BME280;52488;47.502;18.940;2023-02-16T01:17:39;99311.06;;;-0.40;99.45
65754;BME280;52488;47.502;18.940;2023-02-16T01:18:43;99310.81;;;-0.42;99.40
65754;BME280;52488;47.502;18.940;2023-02-16T01:19:46;99306.66;;;-0.43;99.43
65754;BME280;52488;47.502;18.940;2023-02-16T01:20:50;99307.09;;;-0.45;99.41
65754;BME280;52488;47.502;18.940;2023-02-16T01:21:53;99313.72;;;-0.46;99.41
65754;BME280;52488;47.502;18.940;2023-02-16T01:22:56;99307.31;;;-0.48;99.43
65754;BME280;52488;47.502;18.940;2023-02-16T01:24:00;99305.84;;;-0.49;99.48
65754;BME280;52488;47.502;18.940;2023-02-16T01:25:03;99312.97;;;-0.46;99.49
65754;BME280;52488;47.502;18.940;2023-02-16T01:26:15;99299.00;;;-0.45;99.49
65754;BME280;52488;47.502;18.940;2023-02-16T01:27:19;99307.16;;;-0.39;99.39
65754;BME280;52488;47.502;18.940;2023-02-16T01:28:24;99306.16;;;-0.42;99.38
65754;BME280;52488;47.502;18.940;2023-02-16T01:29:28;99307.37;;;-0.43;99.44
65754;BME280;52488;47.502;18.940;2023-02-16T01:30:31;99300.50;;;-0.44;99.50
65754;BME280;52488;47.502;18.940;2023-02-16T01:31:34;99305.66;;;-0.40;99.55
65754;BME280;52488;47.502;18.940;2023-02-16T01:32:37;99302.47;;;-0.44;99.56
65754;BME280;52488;47.502;18.940;2023-02-16T01:33:41;99302.91;;;-0.46;99.62
65754;BME280;52488;47.502;18.940;2023-02-16T01:34:44;99302.22;;;-0.41;99.64
65754;BME280;52488;47.502;18.940;2023-02-16T01:35:49;99303.25;;;-0.38;99.59
65754;BME280;52488;47.502;18.940;2023-02-16T01:36:53;99303.47;;;-0.42;99.55
65754;BME280;52488;47.502;18.940;2023-02-16T01:37:56;99301.19;;;-0.49;99.65
65754;BME280;52488;47.502;18.940;2023-02-16T01:38:59;99300.16;;;-0.51;99.77
65754;BME280;52488;47.502;18.940;2023-02-16T01:40:04;99300.66;;;-0.53;99.89
65754;BME280;52488;47.502;18.940;2023-02-16T01:42:56;99300.34;;;-0.61;100.00
65754;BME280;52488;47.502;18.940;2023-02-16T01:44:15;99296.84;;;-0.67;100.00
65754;BME280;52488;47.502;18.940;2023-02-16T01:45:29;99294.38;;;-0.70;100.00
65754;BME280;52488;47.502;18.940;2023-02-16T01:48:26;99292.16;;;-0.72;100.00
65754;BME280;52488;47.502;18.940;2023-02-16T01:49:30;99290.88;;;-0.76;100.00
65754;BME280;52488;47.502;18.940;2023-02-16T01:53:27;99292.50;;;-0.85;100.00
65754;BME280;52488;47.502;18.940;2023-02-16T01:54:57;99291.28;;;-0.84;100.00
65754;BME280;52488;47.502;18.940;2023-02-16T01:56:05;99290.59;;;-0.78;100.00
65754;BME280;52488;47.502;18.940;2023-02-16T01:58:54;99299.47;;;-0.72;100.00
65754;BME280;52488;47.502;18.940;2023-02-16T02:01:37;99286.97;;;-0.75;99.88
65754;BME280;52488;47.502;18.940;2023-02-16T02:02:58;99288.44;;;-0.74;99.71
65754;BME280;52488;47.502;18.940;2023-02-16T02:04:33;99278.88;;;-0.75;99.66
65754;BME280;52488;47.502;18.940;2023-02-16T02:05:58;99274.94;;;-0.74;99.64
65754;BME280;52488;47.502;18.940;2023-02-16T02:07:01;99275.69;;;-0.74;99.67
65754;BME280;52488;47.502;18.940;2023-02-16T02:13:19;99266.16;;;-0.69;99.82
65754;BME280;52488;47.502;18.940;2023-02-16T02:14:27;99271.03;;;-0.73;99.88
65754;BME280;52488;47.502;18.940;2023-02-16T02:15:33;99263.59;;;-0.78;100.00
65754;BME280;52488;47.502;18.940;2023-02-16T02:16:36;99271.44;;;-0.81;100.00
65754;BME280;52488;47.502;18.940;2023-02-16T02:17:39;99261.59;;;-0.84;100.00
65754;BME280;52488;47.502;18.940;2023-02-16T02:18:43;99265.50;;;-0.85;100.00
65754;BME280;52488;47.502;18.940;2023-02-16T02:19:59;99263.31;;;-0.86;100.00
65754;BME280;52488;47.502;18.940;2023-02-16T02:23:31;99251.25;;;-0.91;100.00
65754;BME280;52488;47.502;18.940;2023-02-16T02:25:09;99256.84;;;-0.94;100.00
65754;BME280;52488;47.502;18.940;2023-02-16T02:28:04;99258.09;;;-0.90;100.00
65754;BME280;52488;47.502;18.940;2023-02-16T02:29:06;99260.34;;;-0.88;100.00
65754;BME280;52488;47.502;18.940;2023-02-16T02:34:58;99257.97;;;-0.81;100.00
65754;BME280;52488;47.502;18.940;2023-02-16T02:39:08;99258.53;;;-0.71;99.89
65754;BME280;52488;47.502;18.940;2023-02-16T02:40:21;99257.97;;;-0.81;100.00
65754;BME280;52488;47.502;18.940;2023-02-16T02:42:02;99264.53;;;-0.87;100.00
65754;BME280;52488;47.502;18.940;2023-02-16T02:43:15;99267.16;;;-0.93;100.00
65754;BME280;52488;47.502;18.940;2023-02-16T02:44:23;99268.09;;;-0.96;100.00
65754;BME280;52488;47.502;18.940;2023-02-16T02:45:36;99271.75;;;-0.99;100.00
65754;BME280;52488;47.502;18.940;2023-02-16T02:46:41;99265.84;;;-1.03;100.00
65754;BME280;52488;47.502;18.940;2023-02-16T02:47:46;99268.00;;;-1.07;100.00
65754;BME280;52488;47.502;18.940;2023-02-16T02:48:50;99266.25;;;-1.10;100.00
65754;BME280;52488;47.502;18.940;2023-02-16T02:49:54;99266.50;;;-1.08;100.00
65754;BME280;52488;47.502;18.940;2023-02-16T02:50:59;99264.59;;;-1.02;100.00
65754;BME280;52488;47.502;18.940;2023-02-16T02:52:22;99258.00;;;-1.01;100.00
65754;BME280;52488;47.502;18.940;2023-02-16T02:53:25;99258.97;;;-1.04;100.00
65754;BME280;52488;47.502;18.940;2023-02-16T02:54:38;99258.47;;;-1.02;100.00
65754;BME280;52488;47.502;18.940;2023-02-16T02:56:02;99252.59;;;-1.01;100.00
65754;BME280;52488;47.502;18.940;2023-02-16T02:57:46;99254.50;;;-1.07;100.00
65754;BME280;52488;47.502;18.940;2023-02-16T02:59:09;99261.72;;;-0.98;100.00
65754;BME280;52488;47.502;18.940;2023-02-16T03:00:37;99251.53;;;-0.89;100.00
65754;BME280;52488;47.502;18.940;2023-02-16T03:01:57;99257.13;;;-0.92;100.00
65754;BME280;52488;47.502;18.940;2023-02-16T03:04:20;99247.97;;;-0.74;100.00
65754;BME280;52488;47.502;18.940;2023-02-16T03:05:27;99250.44;;;-0.71;100.00
65754;BME280;52488;47.502;18.940;2023-02-16T03:06:40;99247.75;;;-0.71;100.00
65754;BME280;52488;47.502;18.940;2023-02-16T03:07:48;99250.50;;;-0.65;100.00
65754;BME280;52488;47.502;18.940;2023-02-16T03:09:04;99254.87;;;-0.68;100.00
65754;BME280;52488;47.502;18.940;2023-02-16T03:10:08;99254.87;;;-0.68;100.00
65754;BME280;52488;47.502;18.940;2023-02-16T03:11:30;99252.88;;;-0.73;100.00
65754;BME280;52488;47.502;18.940;2023-02-16T03:12:53;99251.41;;;-0.74;100.00
65754;BME280;52488;47.502;18.940;2023-02-16T03:14:08;99252.13;;;-0.73;100.00
65754;BME280;52488;47.502;18.940;2023-02-16T03:15:12;99253.87;;;-0.70;100.00
65754;BME280;52488;47.502;18.940;2023-02-16T03:16:22;99249.22;;;-0.70;100.00
65754;BME280;52488;47.502;18.940;2023-02-16T03:17:36;99245.31;;;-0.69;100.00
65754;BME280;52488;47.502;18.940;2023-02-16T03:18:59;99249.22;;;-0.70;100.00
65754;BME280;52488;47.502;18.940;2023-02-16T03:20:22;99248.78;;;-0.63;100.00
65754;BME280;52488;47.502;18.940;2023-02-16T03:21:44;99246.03;;;-0.68;100.00
65754;BME280;52488;47.502;18.940;2023-02-16T03:23:07;99245.00;;;-0.76;100.00
65754;BME280;52488;47.502;18.940;2023-02-16T03:24:30;99247.66;;;-0.82;100.00
65754;BME280;52488;47.502;18.940;2023-02-16T03:25:53;99243.97;;;-0.79;100.00
65754;BME280;52488;47.502;18.940;2023-02-16T03:27:23;99246.53;;;-0.70;100.00
65754;BME280;52488;47.502;18.940;2023-02-16T03:28:46;99244.81;;;-0.67;100.00
65754;BME280;52488;47.502;18.940;2023-02-16T03:30:09;99246.13;;;-0.57;100.00
65754;BME280;52488;47.502;18.940;2023-02-16T03:31:20;99240.53;;;-0.54;100.00
65754;BME280;52488;47.502;18.940;2023-02-16T03:32:26;99240.25;;;-0.56;100.00
65754;BME280;52488;47.502;18.940;2023-02-16T03:33:30;99239.25;;;-0.58;100.00
65754;BME280;52488;47.502;18.940;2023-02-16T03:34:35;99245.41;;;-0.58;100.00
65754;BME280;52488;47.502;18.940;2023-02-16T03:35:39;99238.78;;;-0.57;100.00
65754;BME280;52488;47.502;18.940;2023-02-16T03:36:45;99239.81;;;-0.54;100.00
65754;BME280;52488;47.502;18.940;2023-02-16T03:37:49;99241.03;;;-0.55;100.00
65754;BME280;52488;47.502;18.940;2023-02-16T03:38:53;99248.34;;;-0.56;100.00
65754;BME280;52488;47.502;18.940;2023-02-16T03:39:57;99241.03;;;-0.55;100.00
65754;BME280;52488;47.502;18.940;2023-02-16T03:41:19;99252.28;;;-0.57;100.00
65754;BME280;52488;47.502;18.940;2023-02-16T03:42:22;99244.66;;;-0.58;100.00
65754;BME280;52488;47.502;18.940;2023-02-16T03:43:27;99237.47;;;-0.67;100.00
65754;BME280;52488;47.502;18.940;2023-02-16T03:44:30;99240.41;;;-0.70;100.00
65754;BME280;52488;47.502;18.940;2023-02-16T03:45:37;99236.47;;;-0.69;100.00
65754;BME280;52488;47.502;18.940;2023-02-16T03:46:42;99229.81;;;-0.74;100.00
65754;BME280;52488;47.502;18.940;2023-02-16T03:47:46;99231.22;;;-0.78;100.00
65754;BME280;52488;47.502;18.940;2023-02-16T03:48:49;99235.62;;;-0.81;100.00
65754;BME280;52488;47.502;18.940;2023-02-16T03:49:52;99240.50;;;-0.85;100.00
65754;BME280;52488;47.502;18.940;2023-02-16T03:50:55;99232.88;;;-0.87;100.00
65754;BME280;52488;47.502;18.940;2023-02-16T03:51:59;99239.75;;;-0.86;100.00
65754;BME280;52488;47.502;18.940;2023-02-16T03:53:02;99235.34;;;-0.89;100.00
65754;BME280;52488;47.502;18.940;2023-02-16T03:54:09;99229.66;;;-0.91;100.00
65754;BME280;52488;47.502;18.940;2023-02-16T03:55:12;99232.63;;;-0.89;100.00
65754;BME280;52488;47.502;18.940;2023-02-16T03:56:15;99229.94;;;-0.89;100.00
65754;BME280;52488;47.502;18.940;2023-02-16T03:57:19;99235.34;;;-0.89;100.00
65754;BME280;52488;47.502;18.940;2023-02-16T03:58:23;99232.16;;;-0.87;100.00
65754;BME280;52488;47.502;18.940;2023-02-16T03:59:26;99227.06;;;-0.80;100.00
65754;BME280;52488;47.502;18.940;2023-02-16T04:00:30;99233.19;;;-0.79;100.00
65754;BME280;52488;47.502;18.940;2023-02-16T04:01:34;99230.78;;;-0.77;100.00
65754;BME280;52488;47.502;18.940;2023-02-16T04:02:37;99233.25;;;-0.73;100.00
65754;BME280;52488;47.502;18.940;2023-02-16T04:03:40;99228.59;;;-0.73;100.00
65754;BME280;52488;47.502;18.940;2023-02-16T04:04:43;99230.78;;;-0.77;100.00
65754;BME280;52488;47.502;18.940;2023-02-16T04:05:46;99232.72;;;-0.77;100.00
65754;BME280;52488;47.502;18.940;2023-02-16T04:06:49;99227.06;;;-0.80;100.00
65754;BME280;52488;47.502;18.940;2023-02-16T04:07:53;99232.25;;;-0.76;100.00
65754;BME280;52488;47.502;18.940;2023-02-16T04:08:56;99230.28;;;-0.75;100.00
65754;BME280;52488;47.502;18.940;2023-02-16T04:09:59;99231.50;;;-0.76;100.00
65754;BME280;52488;47.502;18.940;2023-02-16T04:11:03;99237.47;;;-0.67;100.00
65754;BME280;52488;47.502;18.940;2023-02-16T04:12:26;99227.16;;;-0.68;100.00
65754;BME280;52488;47.502;18.940;2023-02-16T04:13:38;99236.72;;;-0.67;100.00
65754;BME280;52488;47.502;18.940;2023-02-16T04:14:41;99236.31;;;-0.60;100.00
65754;BME280;52488;47.502;18.940;2023-02-16T04:15:45;99232.06;;;-0.67;100.00
65754;BME280;52488;47.502;18.940;2023-02-16T04:16:48;99235.69;;;-0.75;100.00
65754;BME280;52488;47.502;18.940;2023-02-16T04:17:52;99239.31;;;-0.78;100.00
65754;BME280;52488;47.502;18.940;2023-02-16T04:18:56;99236.38;;;-0.81;100.00
65754;BME280;52488;47.502;18.940;2023-02-16T04:19:59;99227.53;;;-0.81;100.00
65754;BME280;52488;47.502;18.940;2023-02-16T04:21:02;99235.62;;;-0.81;100.00
65754;BME280;52488;47.502;18.940;2023-02-16T04:22:06;99232.56;;;-0.68;100.00
65754;BME280;52488;47.502;18.940;2023-02-16T04:23:09;99237.75;;;-0.65;100.00
65754;BME280;52488;47.502;18.940;2023-02-16T04:24:12;99228.59;;;-0.73;100.00
65754;BME280;52488;47.502;18.940;2023-02-16T04:25:16;99235.44;;;-0.77;100.00
65754;BME280;52488;47.502;18.940;2023-02-16T04:26:20;99229.75;;;-0.80;100.00
65754;BME280;52488;47.502;18.940;2023-02-16T04:27:23;99232.19;;;-0.82;100.00
65754;BME280;52488;47.502;18.940;2023-02-16T04:28:26;99235.38;;;-0.83;100.00
65754;BME280;52488;47.502;18.940;2023-02-16T04:29:29;99233.88;;;-0.84;100.00
65754;BME280;52488;47.502;18.940;2023-02-16T04:30:33;99231.66;;;-0.86;100.00
65754;BME280;52488;47.502;18.940;2023-02-16T04:31:36;99229.50;;;-0.82;100.00
65754;BME280;52488;47.502;18.940;2023-02-16T04:32:40;99233.97;;;-0.73;100.00
65754;BME280;52488;47.502;18.940;2023-02-16T04:33:43;99230.59;;;-0.68;100.00
65754;BME280;52488;47.502;18.940;2023-02-16T04:34:46;99226.91;;;-0.70;100.00
65754;BME280;52488;47.502;18.940;2023-02-16T04:35:49;99233.78;;;-0.69;100.00
65754;BME280;52488;47.502;18.940;2023-02-16T04:36:52;99236.00;;;-0.68;100.00
65754;BME280;52488;47.502;18.940;2023-02-16T04:37:55;99231.56;;;-0.71;100.00
65754;BME280;52488;47.502;18.940;2023-02-16T04:38:59;99229.06;;;-0.74;100.00
65754;BME280;52488;47.502;18.940;2023-02-16T04:40:04;99236.44;;;-0.75;100.00
65754;BME280;52488;47.502;18.940;2023-02-16T04:41:08;99236.19;;;-0.77;100.00
65754;BME280;52488;47.502;18.940;2023-02-16T04:42:11;99235.75;;;-0.70;100.00
65754;BME280;52488;47.502;18.940;2023-02-16T04:43:14;99238.56;;;-0.53;100.00
65754;BME280;52488;47.502;18.940;2023-02-16T04:44:18;99236.50;;;-0.38;100.00
65754;BME280;52488;47.502;18.940;2023-02-16T04:45:21;99240.66;;;-0.37;100.00
65754;BME280;52488;47.502;18.940;2023-02-16T04:46:24;99235.06;;;-0.33;100.00
65754;BME280;52488;47.502;18.940;2023-02-16T04:47:28;99241.44;;;-0.31;100.00
65754;BME280;52488;47.502;18.940;2023-02-16T04:48:31;99237.75;;;-0.33;100.00
65754;BME280;52488;47.502;18.940;2023-02-16T04:49:34;99234.03;;;-0.36;100.00
65754;BME280;52488;47.502;18.940;2023-02-16T04:50:38;99237.72;;;-0.39;100.00
65754;BME280;52488;47.502;18.940;2023-02-16T04:51:41;99234.22;;;-0.45;100.00
65754;BME280;52488;47.502;18.940;2023-02-16T04:52:44;99233.47;;;-0.45;100.00
65754;BME280;52488;47.502;18.940;2023-02-16T04:53:47;99235.66;;;-0.49;100.00
65754;BME280;52488;47.502;18.940;2023-02-16T04:54:50;99240.00;;;-0.58;100.00
65754;BME280;52488;47.502;18.940;2023-02-16T04:55:53;99231.13;;;-0.64;100.00
65754;BME280;52488;47.502;18.940;2023-02-16T04:56:57;99234.03;;;-0.67;100.00
65754;BME280;52488;47.502;18.940;2023-02-16T04:58:00;99241.88;;;-0.69;100.00
65754;BME280;52488;47.502;18.940;2023-02-16T04:59:03;99241.13;;;-0.70;100.00
65754;BME280;52488;47.502;18.940;2023-02-16T05:00:08;99238.22;;;-0.66;100.00
65754;BME280;52488;47.502;18.940;2023-02-16T05:01:20;99230.87;;;-0.66;100.00
65754;BME280;52488;47.502;18.940;2023-02-16T05:02:24;99229.38;;;-0.67;100.00
65754;BME280;52488;47.502;18.940;2023-02-16T05:03:27;99234.34;;;-0.60;100.00
65754;BME280;52488;47.502;18.940;2023-02-16T05:04:32;99238.37;;;-0.49;100.00
65754;BME280;52488;47.502;18.940;2023-02-16T05:05:36;99237.63;;;-0.50;100.00
65754;BME280;52488;47.502;18.940;2023-02-16T05:06:39;99231.94;;;-0.52;100.00
65754;BME280;52488;47.502;18.940;2023-02-16T05:07:42;99223.59;;;-0.54;100.00
65754;BME280;52488;47.502;18.940;2023-02-16T05:08:46;99235.78;;;-0.64;100.00
65754;BME280;52488;47.502;18.940;2023-02-16T05:09:49;99227.38;;;-0.72;100.00
65754;BME280;52488;47.502;18.940;2023-02-16T05:10:53;99236.38;;;-0.81;100.00
65754;BME280;52488;47.502;18.940;2023-02-16T05:12:14;99236.81;;;-0.88;100.00
65754;BME280;52488;47.502;18.940;2023-02-16T05:13:36;99236.03;;;-0.94;100.00
65754;BME280;52488;47.502;18.940;2023-02-16T05:14:58;99233.53;;;-0.97;100.00
65754;BME280;52488;47.502;18.940;2023-02-16T05:16:01;99228.63;;;-0.99;100.00
65754;BME280;52488;47.502;18.940;2023-02-16T05:17:04;99228.31;;;-1.01;100.00
65754;BME280;52488;47.502;18.940;2023-02-16T05:18:08;99233.47;;;-1.03;100.00
65754;BME280;52488;47.502;18.940;2023-02-16T05:19:11;99232.44;;;-1.06;100.00
65754;BME280;52488;47.502;18.940;2023-02-16T05:20:14;99233.66;;;-1.07;100.00
65754;BME280;52488;47.502;18.940;2023-02-16T05:21:18;99233.94;;;-1.04;100.00
65754;BME280;52488;47.502;18.940;2023-02-16T05:22:33;99229.66;;;-0.91;100.00
65754;BME280;52488;47.502;18.940;2023-02-16T05:23:37;99232.19;;;-0.82;100.00
65754;BME280;52488;47.502;18.940;2023-02-16T05:24:41;99229.28;;;-0.78;100.00
65754;BME280;52488;47.502;18.940;2023-02-16T05:25:44;99230.53;;;-0.73;100.00
65754;BME280;52488;47.502;18.940;2023-02-16T05:26:47;99231.97;;;-0.78;100.00
65754;BME280;52488;47.502;18.940;2023-02-16T05:27:50;99224.78;;;-0.87;100.00
65754;BME280;52488;47.502;18.940;2023-02-16T05:28:54;99233.53;;;-0.97;100.00
65754;BME280;52488;47.502;18.940;2023-02-16T05:29:57;99232.00;;;-1.04;100.00
65754;BME280;52488;47.502;18.940;2023-02-16T05:31:01;99227.59;;;-1.01;100.00
65754;BME280;52488;47.502;18.940;2023-02-16T05:32:05;99216.91;;;-0.90;100.00
65754;BME280;52488;47.502;18.940;2023-02-16T05:33:08;99224.78;;;-0.87;100.00
65754;BME280;52488;47.502;18.940;2023-02-16T05:34:11;99218.44;;;-0.84;100.00
65754;BME280;52488;47.502;18.940;2023-02-16T05:35:15;99226.22;;;-0.91;100.00
65754;BME280;52488;47.502;18.940;2023-02-16T05:36:18;99227.38;;;-0.98;100.00
65754;BME280;52488;47.502;18.940;2023-02-16T05:37:22;99226.84;;;-1.02;100.00
65754;BME280;52488;47.502;18.940;2023-02-16T05:38:25;99229.53;;;-1.02;100.00
65754;BME280;52488;47.502;18.940;2023-02-16T05:39:28;99225.38;;;-1.03;100.00
65754;BME280;52488;47.502;18.940;2023-02-16T05:40:32;99224.75;;;-0.92;100.00
65754;BME280;52488;47.502;18.940;2023-02-16T05:41:35;99217.75;;;-0.78;100.00
65754;BME280;52488;47.502;18.940;2023-02-16T05:42:38;99222.97;;;-0.69;100.00
65754;BME280;52488;47.502;18.940;2023-02-16T05:43:41;99220.78;;;-0.71;100.00
65754;BME280;52488;47.502;18.940;2023-02-16T05:44:44;99220.72;;;-0.76;100.00
65754;BME280;52488;47.502;18.940;2023-02-16T05:45:47;99221.94;;;-0.77;100.00
65754;BME280;52488;47.502;18.940;2023-02-16T05:46:51;99226.81;;;-0.82;100.00
65754;BME280;52488;47.502;18.940;2023-02-16T05:47:54;99232.69;;;-0.83;100.00
65754;BME280;52488;47.502;18.940;2023-02-16T05:48:58;99227.28;;;-0.83;100.00
65754;BME280;52488;47.502;18.940;2023-02-16T05:50:02;99223.56;;;-0.86;100.00
65754;BME280;52488;47.502;18.940;2023-02-16T05:51:05;99225.59;;;-0.81;100.00
65754;BME280;52488;47.502;18.940;2023-02-16T05:52:08;99224.66;;;-0.77;100.00
65754;BME280;52488;47.502;18.940;2023-02-16T05:53:12;99223.63;;;-0.80;100.00
65754;BME280;52488;47.502;18.940;2023-02-16T05:54:15;99217.97;;;-0.82;100.00
65754;BME280;52488;47.502;18.940;2023-02-16T05:55:21;99220.19;;;-0.81;100.00
65754;BME280;52488;47.502;18.940;2023-02-16T05:56:25;99215.28;;;-0.82;100.00
65754;BME280;52488;47.502;18.940;2023-02-16T05:57:28;99215.97;;;-0.87;100.00
65754;BME280;52488;47.502;18.940;2023-02-16T05:58:32;99218.13;;;-0.91;100.00
65754;BME280;52488;47.502;18.940;2023-02-16T05:59:35;99212.94;;;-0.95;100.00
65754;BME280;52488;47.502;18.940;2023-02-16T06:00:38;99218.34;;;-0.95;100.00
65754;BME280;52488;47.502;18.940;2023-02-16T06:01:42;99216.22;;;-0.85;100.00
65754;BME280;52488;47.502;18.940;2023-02-16T06:02:46;99217.94;;;-0.88;100.00
65754;BME280;52488;47.502;18.940;2023-02-16T06:03:49;99216.84;;;-0.96;100.00
65754;BME280;52488;47.502;18.940;2023-02-16T06:04:53;99211.69;;;-0.99;100.00
65754;BME280;52488;47.502;18.940;2023-02-16T06:05:58;99212.62;;;-1.02;100.00
65754;BME280;52488;47.502;18.940;2023-02-16T06:07:02;99211.16;;;-1.03;100.00
65754;BME280;52488;47.502;18.940;2023-02-16T06:08:05;99210.13;;;-1.06;100.00
65754;BME280;52488;47.502;18.940;2023-02-16T06:09:10;99213.12;;;-1.04;100.00
65754;BME280;52488;47.502;18.940;2023-02-16T06:10:13;99220.47;;;-1.04;100.00
65754;BME280;52488;47.502;18.940;2023-02-16T06:11:18;99213.84;;;-1.03;100.00
65754;BME280;52488;47.502;18.940;2023-02-16T06:12:39;99213.38;;;-1.02;100.00
65754;BME280;52488;47.502;18.940;2023-02-16T06:13:46;99206.50;;;-1.03;100.00
65754;BME280;52488;47.502;18.940;2023-02-16T06:14:49;99209.69;;;-1.04;100.00
65754;BME280;52488;47.502;18.940;2023-02-16T06:15:54;99205.56;;;-1.00;100.00
65754;BME280;52488;47.502;18.940;2023-02-16T06:16:58;99207.78;;;-0.98;100.00
65754;BME280;52488;47.502;18.940;2023-02-16T06:18:03;99206.00;;;-1.01;100.00